Kezdőlap
METAR-TAF:

METAR-TAF

Repülőterek :

Alert, Nunavut, Kanada

földrajzi szélesség: 82-31N, földrajzi hosszúság: 062-17W, magasság: 31 m

METAR: hiányzik

Idő: 23:25 (04:25 UTC)

Előrejelzés

A jelentés 4 órával és 55 perccel ezelõtt készült, 23:30 UTC
Az előrejelzés 08-én 00 óra UTC és 08-én 12 óra UTC között érvényes
Különbözõ irányokból fújó szél 3 kt
Látótávolság: 10 km
Derült ég

TAF: CYLT 072330Z 0800/0812 VRB03KT P6SM SKC RMK NXT FCST BY 080600Z

Meteorológiai megfigyelések és előrejelzések több, mint 4000 repülőtéren (METAR és TAF jelentéseket).

A térképen piros és sárga pontok jelzik az elérhető meteorológiai állomásokat.

Mozgassa az egeret a pont fölött, hogy megjelenjen az állomás neve.

Azután kattintson az időjárási megfigyelések és előrejelzések megtekintéséhez.

A térkép megváltoztatása: kattintson a fekete keresztel jelölt zöld gombra ráközelítéshez, a vonallal jelölt zöld gombra távolításhoz, vagy a zöld nyilakra a szomszédos térképek eléréséhez.


METAR-TAF: